Terminal Aerodrome Forecast
Issued by NWS

Home | Current Version | Previous Version | Text Only | Print | Product List | Glossary On
Versions: 1 2 3 4 5 6 7 8 9 10 11 12
000
FTAK31 PAJN 271131
TAFAPG
TAF
PAPG 271131Z 2712/2812 VRB03KT P6SM VCSH FEW010 OVC017
     FM271700 VRB05KT 4SM -RA BR SCT010 OVC025
     FM280100 VRB04KT 4SM RA BR FEW007 OVC015
     FM280800 VRB04KT 4SM -RA BR FEW012 OVC025
      AMD LTD TO CLD VIS AND WIND 2712/2715=

USA.gov is the U.S. government's official web portal to all federal, state and local government web resources and services.